Time;durP1;ratioP1;P1;durP2;ratioP2;P2;SDS_P1;SDS_P2;PMS_P1;PMS_P2;Temp;Humidity;BMP_temperature;BMP_pressure;BME280_temperature;BME280_humidity;BME280_pressure;Samples;Min_cycle;Max_cycle;Signal;HPM_P1;HPM_P2
2023/04/19 00:00:39;;;;;;;;;;;;;;;20.11;41.95;100550.56;103221;1289;63284;-85
2023/04/19 00:03:05;;;;;;;;;;;;;;;20.11;41.84;100546.80;103262;1292;62293;-84
2023/04/19 00:05:30;;;;;;;;;;;;;;;20.10;41.78;100540.93;103309;1289;62362;-84
2023/04/19 00:07:56;;;;;;;;;;;;;;;20.10;41.89;100539.90;103209;1291;63548;-84
2023/04/19 00:10:21;;;;;;;;;;;;;;;20.10;41.84;100533.27;103283;1291;62192;-83
2023/04/19 00:12:47;;;;;;;;;;;;;;;20.10;41.85;100533.64;103260;1290;62246;-84
2023/04/19 00:15:12;;;;;;;;;;;;;;;20.09;41.88;100528.69;103235;1290;63254;-83
2023/04/19 00:17:38;;;;;;;;;;;;;;;20.09;41.88;100533.33;104010;1283;62212;-84
2023/04/19 00:20:04;;;;;;;;;;;;;;;20.10;41.79;100531.34;104037;1283;62785;-83
2023/04/19 00:22:30;;;;;;;;;;;;;;;20.09;41.82;100531.40;103971;1284;75178;-84
2023/04/19 00:24:56;;;;;;;;;;;;;;;20.09;41.83;100530.30;103943;1282;63389;-83
2023/04/19 00:27:21;;;;;;;;;;;;;;;20.09;41.84;100528.73;103942;1282;62102;-83
2023/04/19 00:29:47;;;;;;;;;;;;;;;20.09;41.84;100530.34;104000;1285;62347;-84
2023/04/19 00:32:12;;;;;;;;;;;;;;;20.09;41.65;100530.52;103847;1282;62114;-83
2023/04/19 00:34:38;;;;;;;;;;;;;;;20.08;41.71;100531.45;103991;1286;62168;-82
2023/04/19 00:37:04;;;;;;;;;;;;;;;20.08;41.80;100529.66;104047;1283;62201;-83
2023/04/19 00:39:29;;;;;;;;;;;;;;;20.08;41.72;100529.48;103981;1282;62088;-84
2023/04/19 00:41:56;;;;;;;;;;;;;;;20.08;41.84;100530.06;104005;1282;62178;-84
2023/04/19 00:44:22;;;;;;;;;;;;;;;20.07;41.69;100526.86;103984;1282;62211;-84
2023/04/19 00:46:47;;;;;;;;;;;;;;;20.08;41.82;100527.72;103959;1288;62203;-83
2023/04/19 00:49:13;;;;;;;;;;;;;;;20.07;41.71;100525.61;104125;1283;63233;-83
2023/04/19 00:51:38;;;;;;;;;;;;;;;20.07;41.72;100529.01;104092;1283;62126;-84
2023/04/19 00:54:05;;;;;;;;;;;;;;;20.07;41.64;100526.17;104020;1283;62197;-84
2023/04/19 00:56:30;;;;;;;;;;;;;;;20.07;41.72;100523.64;104107;1283;63337;-83
2023/04/19 00:58:56;;;;;;;;;;;;;;;20.07;41.70;100522.98;104048;1288;62207;-83
2023/04/19 01:01:22;;;;;;;;;;;;;;;20.07;41.74;100526.17;104008;1282;62188;-83
2023/04/19 01:03:47;;;;;;;;;;;;;;;20.07;41.76;100524.05;103990;1288;63353;-82
2023/04/19 01:06:13;;;;;;;;;;;;;;;20.07;41.68;100523.50;104124;1286;62207;-84
2023/04/19 01:08:39;;;;;;;;;;;;;;;20.07;41.79;100522.27;103860;1283;62597;-84
2023/04/19 01:11:07;;;;;;;;;;;;;;;20.07;41.75;100520.83;104098;1282;63354;-83
2023/04/19 01:13:33;;;;;;;;;;;;;;;20.07;41.71;100519.05;104061;1282;62179;-83
2023/04/19 01:15:58;;;;;;;;;;;;;;;20.07;41.74;100516.01;104004;1282;62185;-84
2023/04/19 01:18:25;;;;;;;;;;;;;;;20.06;41.78;100512.30;103826;1283;63491;-84
2023/04/19 01:20:51;;;;;;;;;;;;;;;20.06;41.70;100510.34;103970;1286;62214;-83
2023/04/19 01:23:16;;;;;;;;;;;;;;;20.06;41.79;100509.84;104049;1282;62207;-83
2023/04/19 01:25:41;;;;;;;;;;;;;;;20.06;41.68;100506.08;104066;1282;62103;-83
2023/04/19 01:28:07;;;;;;;;;;;;;;;20.06;41.72;100505.30;104009;1283;72125;-83
2023/04/19 01:30:33;;;;;;;;;;;;;;;20.06;41.71;100501.06;104088;1283;62207;-83
2023/04/19 01:32:58;;;;;;;;;;;;;;;20.05;41.64;100499.84;104028;1288;62212;-84
2023/04/19 01:35:24;;;;;;;;;;;;;;;20.05;41.67;100497.89;104091;1282;62669;-83
2023/04/19 01:37:52;;;;;;;;;;;;;;;20.05;41.67;100497.70;104287;1287;62650;-83
2023/04/19 01:40:18;;;;;;;;;;;;;;;20.05;41.67;100492.20;103984;1283;62185;-82
2023/04/19 01:42:43;;;;;;;;;;;;;;;20.05;41.59;100491.32;103813;1289;62207;-83
2023/04/19 01:45:09;;;;;;;;;;;;;;;20.05;41.65;100491.13;103658;1291;62217;-83
2023/04/19 01:47:34;;;;;;;;;;;;;;;20.05;41.71;100488.27;103939;1283;62098;-82
2023/04/19 01:50:01;;;;;;;;;;;;;;;20.05;41.65;100488.46;103937;1282;62231;-81
2023/04/19 01:52:26;;;;;;;;;;;;;;;20.05;41.62;100488.29;103775;1282;62596;-83
2023/04/19 01:54:51;;;;;;;;;;;;;;;20.05;41.82;100489.52;103767;1282;62209;-83
2023/04/19 01:57:17;;;;;;;;;;;;;;;20.04;41.60;100486.34;103824;1288;62449;-81
2023/04/19 01:59:43;;;;;;;;;;;;;;;20.04;41.78;100486.38;103811;1286;62596;-81
2023/04/19 02:02:08;;;;;;;;;;;;;;;20.04;41.68;100485.50;103742;1288;62181;-82
2023/04/19 02:04:34;;;;;;;;;;;;;;;20.03;41.65;100484.97;103469;1291;62390;-82
2023/04/19 02:07:00;;;;;;;;;;;;;;;20.03;41.81;100484.27;103516;1286;63446;-82
2023/04/19 02:09:25;;;;;;;;;;;;;;;20.03;41.71;100482.52;103499;1285;63469;-82
2023/04/19 02:11:51;;;;;;;;;;;;;;;20.03;41.64;100480.57;103405;1291;62199;-82
2023/04/19 02:14:16;;;;;;;;;;;;;;;20.02;41.74;100482.92;103583;1285;62188;-82
2023/04/19 02:16:42;;;;;;;;;;;;;;;20.02;41.69;100482.20;103409;1286;62558;-82
2023/04/19 02:19:08;;;;;;;;;;;;;;;20.02;41.63;100485.28;103513;1285;62368;-82
2023/04/19 02:21:33;;;;;;;;;;;;;;;20.02;41.73;100490.11;103507;1286;62203;-83
2023/04/19 02:23:59;;;;;;;;;;;;;;;20.02;41.57;100489.02;103574;1290;62350;-83
2023/04/19 02:26:25;;;;;;;;;;;;;;;20.02;41.62;100487.62;103478;1291;62245;-82
2023/04/19 02:28:51;;;;;;;;;;;;;;;20.01;41.52;100483.91;103363;1291;74122;-83
2023/04/19 02:31:17;;;;;;;;;;;;;;;20.01;41.54;100483.02;103390;1288;62403;-82
2023/04/19 02:33:43;;;;;;;;;;;;;;;20.01;41.59;100484.79;103369;1287;62312;-83
2023/04/19 02:36:08;;;;;;;;;;;;;;;20.01;41.57;100479.79;103497;1286;62264;-82
2023/04/19 02:38:34;;;;;;;;;;;;;;;20.00;41.55;100477.70;103608;1286;62395;-81
2023/04/19 02:41:03;;;;;;;;;;;;;;;20.01;41.57;100476.96;103669;1286;62362;-82
2023/04/19 02:43:29;;;;;;;;;;;;;;;20.00;41.66;100476.46;103620;1286;62201;-82
2023/04/19 02:45:55;;;;;;;;;;;;;;;20.00;41.64;100476.45;103651;1289;62279;-82
2023/04/19 02:48:21;;;;;;;;;;;;;;;20.00;41.55;100475.38;103572;1285;62193;-82
2023/04/19 02:50:46;;;;;;;;;;;;;;;20.00;41.72;100475.77;103534;1286;62207;-82
2023/04/19 02:53:12;;;;;;;;;;;;;;;20.00;41.73;100472.20;103730;1286;62251;-82
2023/04/19 02:55:38;;;;;;;;;;;;;;;19.99;41.64;100474.19;103646;1286;62350;-82
2023/04/19 02:58:03;;;;;;;;;;;;;;;20.00;41.67;100475.95;104009;1288;62270;-81
2023/04/19 03:00:29;;;;;;;;;;;;;;;19.99;41.58;100473.66;104003;1283;62200;-80
2023/04/19 03:02:55;;;;;;;;;;;;;;;20.00;41.60;100478.98;103995;1283;62191;-83
2023/04/19 03:05:21;;;;;;;;;;;;;;;19.99;41.61;100475.98;103778;1282;62191;-82
2023/04/19 03:07:46;;;;;;;;;;;;;;;20.00;41.69;100478.65;103774;1282;62248;-82
2023/04/19 03:10:13;;;;;;;;;;;;;;;19.99;41.65;100478.85;103789;1282;62661;-82
2023/04/19 03:12:38;;;;;;;;;;;;;;;19.99;41.57;100476.54;103832;1283;72483;-82
2023/04/19 03:15:05;;;;;;;;;;;;;;;19.99;41.62;100477.98;104195;1282;62134;-81
2023/04/19 03:17:30;;;;;;;;;;;;;;;19.99;41.69;100476.19;103974;1282;62233;-81
2023/04/19 03:19:56;;;;;;;;;;;;;;;19.99;41.62;100480.31;104215;1282;62165;-81
2023/04/19 03:22:22;;;;;;;;;;;;;;;19.99;41.73;100482.60;104194;1283;62063;-81
2023/04/19 03:24:48;;;;;;;;;;;;;;;19.99;41.63;100482.43;104101;1288;62185;-81
2023/04/19 03:27:13;;;;;;;;;;;;;;;20.00;41.68;100478.80;104127;1283;62210;-81
2023/04/19 03:29:39;;;;;;;;;;;;;;;20.00;41.75;100478.64;103802;1285;62164;-82
2023/04/19 03:32:04;;;;;;;;;;;;;;;20.00;41.60;100485.42;103763;1283;62196;-81
2023/04/19 03:34:30;;;;;;;;;;;;;;;20.00;41.71;100483.27;103797;1283;63356;-83
2023/04/19 03:36:55;;;;;;;;;;;;;;;20.00;41.62;100481.14;103766;1283;62097;-83
2023/04/19 03:39:21;;;;;;;;;;;;;;;20.00;41.60;100482.02;103860;1283;62145;-83
2023/04/19 03:41:46;;;;;;;;;;;;;;;20.00;41.62;100479.53;103628;1282;62104;-83
2023/04/19 03:44:12;;;;;;;;;;;;;;;20.00;41.58;100480.80;103769;1286;62195;-83
2023/04/19 03:46:37;;;;;;;;;;;;;;;19.99;41.48;100481.36;103836;1282;62152;-82
2023/04/19 03:49:03;;;;;;;;;;;;;;;19.99;41.52;100480.28;103759;1282;62191;-84
2023/04/19 03:51:29;;;;;;;;;;;;;;;19.98;41.46;100475.70;103870;1283;62207;-83
2023/04/19 03:53:54;;;;;;;;;;;;;;;19.98;41.54;100477.18;103795;1283;62091;-82
2023/04/19 03:56:20;;;;;;;;;;;;;;;19.97;41.38;100474.52;103791;1283;62225;-82
2023/04/19 03:58:45;;;;;;;;;;;;;;;19.96;41.44;100475.88;103799;1288;63412;-83
2023/04/19 04:01:18;;;;;;;;;;;;;;;19.96;41.42;100476.98;103792;1282;62245;-82
2023/04/19 04:03:44;;;;;;;;;;;;;;;19.95;41.48;100475.46;103835;1282;62732;-82
2023/04/19 04:06:09;;;;;;;;;;;;;;;19.94;41.32;100479.77;104102;1282;62074;-83
2023/04/19 04:08:37;;;;;;;;;;;;;;;19.93;41.23;100476.05;103922;1283;62181;-82
2023/04/19 04:11:02;;;;;;;;;;;;;;;19.92;41.11;100481.67;103729;1282;62124;-83
2023/04/19 04:13:27;;;;;;;;;;;;;;;19.92;41.12;100479.89;103810;1283;62183;-82
2023/04/19 04:15:54;;;;;;;;;;;;;;;19.91;41.09;100480.68;103865;1283;62190;-84
2023/04/19 04:18:20;;;;;;;;;;;;;;;19.91;41.19;100479.98;103870;1282;62184;-83
2023/04/19 04:20:46;;;;;;;;;;;;;;;19.89;41.12;100480.45;103822;1282;62263;-83
2023/04/19 04:23:13;;;;;;;;;;;;;;;19.89;41.09;100477.28;103863;1287;75356;-82
2023/04/19 04:25:39;;;;;;;;;;;;;;;19.89;41.01;100477.42;103771;1283;62034;-82
2023/04/19 04:28:04;;;;;;;;;;;;;;;19.89;41.10;100474.36;103799;1288;63339;-82
2023/04/19 04:30:30;;;;;;;;;;;;;;;19.90;41.16;100472.21;103903;1286;62363;-82
2023/04/19 04:32:58;;;;;;;;;;;;;;;19.89;40.99;100470.31;103812;1288;62245;-82
2023/04/19 04:35:27;;;;;;;;;;;;;;;19.89;40.97;100472.76;104149;1285;62693;-82
2023/04/19 04:37:54;;;;;;;;;;;;;;;19.89;40.89;100472.97;103720;1286;62071;-82
2023/04/19 04:40:20;;;;;;;;;;;;;;;19.90;40.95;100475.96;103639;1286;62101;-83
2023/04/19 04:42:46;;;;;;;;;;;;;;;19.90;40.83;100474.70;103616;1289;62299;-83
2023/04/19 04:45:11;;;;;;;;;;;;;;;19.90;40.78;100475.75;103826;1291;62285;-83
2023/04/19 04:47:42;;;;;;;;;;;;;;;19.90;40.69;100473.77;104139;1288;62180;-83
2023/04/19 04:50:08;;;;;;;;;;;;;;;19.90;40.75;100474.70;104403;1286;62203;-80
2023/04/19 04:52:33;;;;;;;;;;;;;;;19.89;40.49;100476.02;103764;1291;62479;-81
2023/04/19 04:54:59;;;;;;;;;;;;;;;19.89;40.57;100477.04;104515;1288;62267;-82
2023/04/19 04:57:24;;;;;;;;;;;;;;;19.90;40.47;100476.65;104762;1288;62385;-83
2023/04/19 04:59:49;;;;;;;;;;;;;;;19.91;40.46;100475.33;105304;1285;60277;-82
2023/04/19 05:02:15;;;;;;;;;;;;;;;19.91;40.46;100476.01;105404;1286;62111;-83
2023/04/19 05:04:41;;;;;;;;;;;;;;;19.92;40.31;100474.88;106300;1285;61988;-83
2023/04/19 05:07:06;;;;;;;;;;;;;;;19.92;40.46;100472.92;106346;1285;62162;-81
2023/04/19 05:09:32;;;;;;;;;;;;;;;19.93;40.41;100473.59;105026;1283;61314;-80
2023/04/19 05:11:57;;;;;;;;;;;;;;;19.96;40.50;100473.41;104901;1283;62069;-81
2023/04/19 05:14:23;;;;;;;;;;;;;;;19.98;40.50;100474.30;104587;1283;62115;-82
2023/04/19 05:16:48;;;;;;;;;;;;;;;20.01;40.32;100472.33;104616;1285;62057;-81
2023/04/19 05:19:14;;;;;;;;;;;;;;;20.02;40.29;100470.25;104441;1282;62259;-81
2023/04/19 05:21:39;;;;;;;;;;;;;;;20.03;40.12;100470.71;104566;1285;62184;-81
2023/04/19 05:24:05;;;;;;;;;;;;;;;20.04;40.22;100467.80;104680;1285;62050;-82
2023/04/19 05:26:31;;;;;;;;;;;;;;;20.05;39.89;100469.00;104874;1285;62204;-81
2023/04/19 05:28:56;;;;;;;;;;;;;;;20.05;40.04;100469.47;104953;1286;62257;-81
2023/04/19 05:31:21;;;;;;;;;;;;;;;20.06;39.84;100469.08;105045;1285;62190;-81
2023/04/19 05:33:47;;;;;;;;;;;;;;;20.07;39.95;100467.77;104978;1284;62165;-81
2023/04/19 05:36:15;;;;;;;;;;;;;;;20.07;39.85;100468.30;104741;1285;62053;-82
2023/04/19 05:38:40;;;;;;;;;;;;;;;20.08;39.93;100466.10;104662;1285;72758;-82
2023/04/19 05:41:06;;;;;;;;;;;;;;;20.08;39.84;100466.11;104724;1285;62268;-82
2023/04/19 05:43:31;;;;;;;;;;;;;;;20.08;39.89;100465.55;104670;1284;62184;-82
2023/04/19 05:45:57;;;;;;;;;;;;;;;20.09;39.75;100463.13;104972;1287;62153;-81
2023/04/19 05:48:22;;;;;;;;;;;;;;;20.10;39.87;100461.48;104802;1285;62204;-82
2023/04/19 05:50:48;;;;;;;;;;;;;;;20.12;39.67;100456.00;104997;1285;73350;-82
2023/04/19 05:53:14;;;;;;;;;;;;;;;20.13;39.65;100454.68;105228;1285;60772;-81
2023/04/19 05:55:40;;;;;;;;;;;;;;;20.09;39.57;100452.25;105292;1285;60779;-81
2023/04/19 05:58:05;;;;;;;;;;;;;;;20.05;39.53;100448.63;105485;1282;62178;-84
2023/04/19 06:00:31;;;;;;;;;;;;;;;20.04;39.48;100448.67;105637;1282;61315;-82
2023/04/19 06:02:57;;;;;;;;;;;;;;;20.05;39.65;100451.10;105838;1288;60315;-81
2023/04/19 06:05:22;;;;;;;;;;;;;;;20.08;39.54;100451.09;105702;1282;75337;-81
2023/04/19 06:07:48;;;;;;;;;;;;;;;20.09;39.54;100450.45;105655;1282;61398;-82
2023/04/19 06:10:14;;;;;;;;;;;;;;;20.08;39.69;100449.08;105829;1282;60985;-81
2023/04/19 06:12:39;;;;;;;;;;;;;;;20.09;39.51;100444.42;105655;1283;61925;-82
2023/04/19 06:15:05;;;;;;;;;;;;;;;20.11;39.46;100442.84;105690;1283;62194;-82
2023/04/19 06:17:30;;;;;;;;;;;;;;;20.14;39.44;100437.98;105472;1282;75376;-82
2023/04/19 06:19:56;;;;;;;;;;;;;;;20.17;39.44;100434.38;105695;1283;62089;-82
2023/04/19 06:22:21;;;;;;;;;;;;;;;20.19;39.39;100437.05;105891;1282;62207;-82
2023/04/19 06:24:47;;;;;;;;;;;;;;;20.22;39.26;100433.79;105840;1283;62091;-82
2023/04/19 06:27:14;;;;;;;;;;;;;;;20.24;39.35;100433.44;105879;1282;62133;-82
2023/04/19 06:29:39;;;;;;;;;;;;;;;20.27;39.38;100428.43;105862;1283;75497;-82
2023/04/19 06:32:05;;;;;;;;;;;;;;;20.27;39.40;100429.13;105923;1282;61995;-81
2023/04/19 06:34:30;;;;;;;;;;;;;;;20.29;39.32;100427.05;105860;1288;61303;-82
2023/04/19 06:36:56;;;;;;;;;;;;;;;20.30;39.26;100427.33;105754;1288;61279;-81
2023/04/19 06:39:21;;;;;;;;;;;;;;;20.32;39.28;100424.33;105830;1283;61896;-82
2023/04/19 06:41:47;;;;;;;;;;;;;;;20.34;39.10;100423.08;105819;1288;76729;-82
2023/04/19 06:44:12;;;;;;;;;;;;;;;20.35;39.19;100421.27;105729;1282;62066;-82
2023/04/19 06:46:38;;;;;;;;;;;;;;;20.37;39.25;100420.92;105648;1282;62311;-82
2023/04/19 06:49:04;;;;;;;;;;;;;;;20.39;39.16;100426.15;105762;1282;61441;-82
2023/04/19 06:51:38;;;;;;;;;;;;;;;20.40;39.19;100424.41;105969;1283;61428;-83
2023/04/19 06:54:04;;;;;;;;;;;;;;;20.40;39.10;100427.27;106041;1282;75187;-82
2023/04/19 06:56:46;;;;;;;;;;;;;;;20.37;39.26;100430.86;105969;1287;60647;-82
2023/04/19 06:59:12;;;;;;;;;;;;;;;20.37;39.54;100432.86;106083;1282;61617;-80
2023/04/19 07:01:39;;;;;;;;;;;;;;;20.39;39.77;100429.55;106004;1282;72327;-80
2023/04/19 07:04:06;;;;;;;;;;;;;;;20.40;39.83;100432.84;105986;1283;60889;-81
2023/04/19 07:06:32;;;;;;;;;;;;;;;20.43;40.06;100430.82;105499;1282;605850;-82
2023/04/19 07:08:58;;;;;;;;;;;;;;;20.47;40.14;100432.85;106057;1285;61572;-83
2023/04/19 07:11:24;;;;;;;;;;;;;;;20.50;40.17;100427.64;106079;1285;60682;-82
2023/04/19 07:13:50;;;;;;;;;;;;;;;20.51;40.25;100426.83;105772;1289;60880;-82
2023/04/19 07:16:15;;;;;;;;;;;;;;;20.52;40.10;100427.66;106427;1282;60632;-82
2023/04/19 07:18:42;;;;;;;;;;;;;;;20.52;40.22;100433.90;106242;1285;60379;-83
2023/04/19 07:21:08;;;;;;;;;;;;;;;20.52;40.13;100433.93;106512;1282;60239;-81
2023/04/19 07:23:33;;;;;;;;;;;;;;;20.52;40.13;100441.06;106292;1282;61499;-82
2023/04/19 07:25:59;;;;;;;;;;;;;;;20.53;40.05;100437.02;105382;1283;75252;-81
2023/04/19 07:28:24;;;;;;;;;;;;;;;20.55;40.00;100434.01;105481;1283;62242;-82
2023/04/19 07:30:50;;;;;;;;;;;;;;;20.57;40.13;100434.58;105639;1283;60983;-82
2023/04/19 07:33:15;;;;;;;;;;;;;;;20.59;40.11;100434.27;105737;1285;60685;-82
2023/04/19 07:35:41;;;;;;;;;;;;;;;20.60;39.86;100439.58;105868;1283;62062;-82
2023/04/19 07:38:06;;;;;;;;;;;;;;;20.59;40.08;100441.92;105573;1282;62094;-82
2023/04/19 07:40:32;;;;;;;;;;;;;;;20.59;40.02;100440.20;105260;1282;62546;-81
2023/04/19 07:42:57;;;;;;;;;;;;;;;20.59;40.00;100440.52;105670;1282;61284;-81
2023/04/19 07:45:23;;;;;;;;;;;;;;;20.59;39.83;100440.87;105595;1286;60966;-81
2023/04/19 07:47:48;;;;;;;;;;;;;;;20.58;39.74;100443.61;105622;1285;62137;-81
2023/04/19 07:50:13;;;;;;;;;;;;;;;20.59;39.89;100439.45;105722;1282;62037;-81
2023/04/19 07:52:39;;;;;;;;;;;;;;;20.58;39.76;100441.30;105556;1282;60590;-82
2023/04/19 07:55:05;;;;;;;;;;;;;;;20.58;39.81;100436.85;105805;1287;60874;-82
2023/04/19 07:57:30;;;;;;;;;;;;;;;20.58;39.82;100433.63;105554;1283;62188;-81
2023/04/19 07:59:58;;;;;;;;;;;;;;;20.57;39.84;100434.27;105904;1283;61560;-82
2023/04/19 08:02:26;;;;;;;;;;;;;;;20.56;39.82;100429.12;105902;1288;75756;-81
2023/04/19 08:04:53;;;;;;;;;;;;;;;20.52;39.92;100427.83;106083;1282;63757;-81
2023/04/19 08:07:18;;;;;;;;;;;;;;;20.47;40.18;100431.63;105931;1288;62036;-80
2023/04/19 08:09:43;;;;;;;;;;;;;;;20.45;40.41;100425.48;105861;1283;61341;-81
2023/04/19 08:12:09;;;;;;;;;;;;;;;20.45;40.47;100422.49;106053;1282;61721;-80
2023/04/19 08:14:37;;;;;;;;;;;;;;;20.44;40.55;100419.65;105883;1283;61607;-82
2023/04/19 08:17:03;;;;;;;;;;;;;;;20.43;40.74;100427.02;106020;1288;60338;-82
2023/04/19 08:19:29;;;;;;;;;;;;;;;20.41;40.62;100418.78;105738;1283;60732;-82
2023/04/19 08:21:56;;;;;;;;;;;;;;;20.41;40.78;100422.20;105826;1283;62069;-81
2023/04/19 08:24:21;;;;;;;;;;;;;;;20.42;40.81;100417.48;106649;1283;60353;-82
2023/04/19 08:26:52;;;;;;;;;;;;;;;20.44;40.69;100415.55;106791;1282;60203;-82
2023/04/19 08:29:19;;;;;;;;;;;;;;;20.45;40.73;100414.61;106706;1288;61186;-82
2023/04/19 08:31:45;;;;;;;;;;;;;;;20.46;40.82;100412.20;106438;1283;71627;-81
2023/04/19 08:34:10;;;;;;;;;;;;;;;20.46;40.67;100414.69;105603;1283;61614;-82
2023/04/19 08:36:36;;;;;;;;;;;;;;;20.47;40.88;100423.23;105638;1283;60750;-82
2023/04/19 08:39:02;;;;;;;;;;;;;;;20.46;40.82;100417.75;105776;1282;62734;-82
2023/04/19 08:41:28;;;;;;;;;;;;;;;20.45;40.82;100420.52;106060;1286;60300;-82
2023/04/19 08:43:53;;;;;;;;;;;;;;;20.43;40.72;100419.69;105864;1283;72439;-82
2023/04/19 08:46:19;;;;;;;;;;;;;;;20.44;40.86;100416.98;105805;1282;60512;-82
2023/04/19 08:48:45;;;;;;;;;;;;;;;20.43;40.75;100416.47;105601;1283;60531;-82
2023/04/19 08:51:11;;;;;;;;;;;;;;;20.43;40.96;100420.09;105799;1288;60811;-82
2023/04/19 08:53:36;;;;;;;;;;;;;;;20.41;41.03;100416.34;105755;1283;62290;-82
2023/04/19 08:56:02;;;;;;;;;;;;;;;20.36;40.94;100413.85;105816;1285;60855;-82
2023/04/19 08:58:31;;;;;;;;;;;;;;;20.34;41.07;100408.64;105835;1282;74885;-83
2023/04/19 09:00:57;;;;;;;;;;;;;;;20.33;41.20;100409.95;106075;1288;61874;-81
2023/04/19 09:03:22;;;;;;;;;;;;;;;20.34;41.15;100414.52;105946;1282;62098;-82
2023/04/19 09:05:48;;;;;;;;;;;;;;;20.33;41.44;100411.16;106124;1285;61600;-81
2023/04/19 09:08:26;;;;;;;;;;;;;;;20.35;41.56;100413.42;106042;1288;60720;-81
2023/04/19 09:10:53;;;;;;;;;;;;;;;20.36;41.71;100412.37;106063;1283;61374;-81
2023/04/19 09:13:19;;;;;;;;;;;;;;;20.37;41.68;100410.52;106032;1282;60406;-81
2023/04/19 09:15:44;;;;;;;;;;;;;;;20.36;41.79;100411.54;105999;1287;60168;-81
2023/04/19 09:18:10;;;;;;;;;;;;;;;20.35;41.59;100411.05;105887;1283;62112;-81
2023/04/19 09:20:37;;;;;;;;;;;;;;;20.34;41.70;100409.33;105788;1283;62198;-81
2023/04/19 09:23:04;;;;;;;;;;;;;;;20.35;41.81;100410.31;105818;1283;62132;-81
2023/04/19 09:25:30;;;;;;;;;;;;;;;20.35;41.68;100407.33;105696;1283;62160;-81
2023/04/19 09:28:07;;;;;;;;;;;;;;;20.35;41.68;100409.44;105728;1283;62235;-81
2023/04/19 09:30:32;;;;;;;;;;;;;;;20.33;41.56;100406.55;105536;1285;61938;-81
2023/04/19 09:32:58;;;;;;;;;;;;;;;20.30;41.50;100403.94;105595;1285;62097;-81
2023/04/19 09:35:34;;;;;;;;;;;;;;;20.28;41.59;100407.29;105539;1289;60332;-81
2023/04/19 09:38:00;;;;;;;;;;;;;;;20.26;41.48;100400.27;105570;1288;75242;-82
2023/04/19 09:40:26;;;;;;;;;;;;;;;20.24;41.57;100402.16;105782;1288;60395;-81
2023/04/19 09:42:52;;;;;;;;;;;;;;;20.23;41.54;100397.05;105831;1288;62079;-81
2023/04/19 09:45:18;;;;;;;;;;;;;;;20.24;41.56;100395.22;105646;1288;62924;-82
2023/04/19 09:47:44;;;;;;;;;;;;;;;20.25;41.51;100394.40;105595;1282;62078;-81
2023/04/19 09:50:10;;;;;;;;;;;;;;;20.23;41.48;100395.28;105698;1282;62175;-81
2023/04/19 09:52:36;;;;;;;;;;;;;;;20.22;41.55;100393.41;105748;1288;60860;-80
2023/04/19 09:55:03;;;;;;;;;;;;;;;20.23;41.61;100391.34;105546;1288;62098;-81
2023/04/19 09:57:29;;;;;;;;;;;;;;;20.23;41.61;100393.13;105464;1285;73220;-80
2023/04/19 09:59:55;;;;;;;;;;;;;;;20.23;41.70;100394.39;105799;1283;76080;-81
2023/04/19 10:02:21;;;;;;;;;;;;;;;20.23;41.67;100394.81;105847;1283;60864;-83
2023/04/19 10:04:47;;;;;;;;;;;;;;;20.17;41.67;100385.91;105764;1288;60320;-80
2023/04/19 10:07:12;;;;;;;;;;;;;;;20.13;41.70;100390.34;105775;1288;60526;-81
2023/04/19 10:09:38;;;;;;;;;;;;;;;20.10;41.79;100392.11;105872;1288;61081;-81
2023/04/19 10:12:03;;;;;;;;;;;;;;;20.10;41.85;100388.23;105988;1283;76976;-81
2023/04/19 10:14:32;;;;;;;;;;;;;;;20.08;41.78;100390.00;106121;1283;61306;-81
2023/04/19 10:16:58;;;;;;;;;;;;;;;20.07;41.87;100387.39;105806;1288;62050;-80
2023/04/19 10:19:23;;;;;;;;;;;;;;;20.07;41.91;100392.34;105763;1283;62171;-81
2023/04/19 10:21:49;;;;;;;;;;;;;;;20.09;41.92;100393.98;105900;1288;60695;-81
2023/04/19 10:24:17;;;;;;;;;;;;;;;20.10;41.81;100391.64;105838;1282;62091;-81
2023/04/19 10:27:01;;;;;;;;;;;;;;;20.09;41.88;100390.92;105734;1288;62092;-81
2023/04/19 10:29:46;;;;;;;;;;;;;;;20.08;42.03;100385.71;105495;1284;72082;-81
2023/04/19 10:32:15;;;;;;;;;;;;;;;20.06;41.92;100386.72;105434;1283;75185;-81
2023/04/19 10:34:41;;;;;;;;;;;;;;;20.01;41.96;100384.75;105696;1284;61934;-83
2023/04/19 10:37:10;;;;;;;;;;;;;;;20.00;41.90;100382.35;105716;1287;60829;-81
2023/04/19 10:39:42;;;;;;;;;;;;;;;19.99;41.97;100384.77;105668;1288;73443;-81
2023/04/19 10:42:08;;;;;;;;;;;;;;;19.99;42.03;100383.91;105629;1289;75515;-81
2023/04/19 10:44:33;;;;;;;;;;;;;;;19.98;42.08;100381.45;105581;1286;62107;-81
2023/04/19 10:46:58;;;;;;;;;;;;;;;19.96;41.95;100380.33;105831;1283;60582;-81
2023/04/19 10:49:30;;;;;;;;;;;;;;;19.97;41.93;100378.84;105967;1286;61629;-81
2023/04/19 10:51:56;;;;;;;;;;;;;;;19.96;41.98;100375.67;105948;1282;75385;-81
2023/04/19 10:54:36;;;;;;;;;;;;;;;19.95;41.90;100378.46;106154;1283;60909;-81
2023/04/19 10:57:05;;;;;;;;;;;;;;;19.94;42.06;100375.10;106006;1283;60715;-81
2023/04/19 10:59:34;;;;;;;;;;;;;;;19.93;41.97;100376.61;105842;1285;72521;-81
2023/04/19 11:02:00;;;;;;;;;;;;;;;19.91;42.17;100374.41;105925;1288;77633;-81
2023/04/19 11:04:29;;;;;;;;;;;;;;;19.87;42.03;100372.39;105945;1289;61108;-81
2023/04/19 11:06:55;;;;;;;;;;;;;;;19.85;42.19;100376.14;106097;1288;61951;-81
2023/04/19 11:09:21;;;;;;;;;;;;;;;19.80;42.21;100376.99;106225;1287;60632;-81
2023/04/19 11:11:46;;;;;;;;;;;;;;;19.77;42.20;100375.05;106125;1287;60583;-81
2023/04/19 11:14:12;;;;;;;;;;;;;;;19.78;42.14;100372.87;105876;1287;60780;-80
2023/04/19 11:16:37;;;;;;;;;;;;;;;19.75;42.14;100368.75;105915;1284;62110;-81
2023/04/19 11:19:03;;;;;;;;;;;;;;;19.74;42.25;100370.08;105913;1283;60439;-80
2023/04/19 11:21:28;;;;;;;;;;;;;;;19.72;42.17;100368.97;105712;1287;73480;-81
2023/04/19 11:24:09;;;;;;;;;;;;;;;19.73;42.33;100366.59;104817;1283;62169;-81
2023/04/19 11:26:35;;;;;;;;;;;;;;;19.73;42.10;100359.63;105457;1282;60320;-80
2023/04/19 11:29:01;;;;;;;;;;;;;;;19.65;42.09;100358.20;105476;1283;62185;-81
2023/04/19 11:31:26;;;;;;;;;;;;;;;19.63;42.28;100354.80;105349;1288;62543;-81
2023/04/19 11:33:52;;;;;;;;;;;;;;;19.63;42.29;100359.09;105664;1288;61286;-81
2023/04/19 11:36:17;;;;;;;;;;;;;;;19.65;42.33;100359.69;105335;1283;62290;-81
2023/04/19 11:38:47;;;;;;;;;;;;;;;19.66;42.41;100359.38;105435;1284;62143;-81
2023/04/19 11:41:12;;;;;;;;;;;;;;;19.68;42.48;100355.52;105397;1289;62092;-81
2023/04/19 11:43:38;;;;;;;;;;;;;;;19.71;42.45;100351.95;105129;1289;62247;-81
2023/04/19 11:46:04;;;;;;;;;;;;;;;19.73;42.52;100347.86;105154;1283;62206;-81
2023/04/19 11:48:30;;;;;;;;;;;;;;;19.74;42.46;100349.02;105256;1283;62404;-81
2023/04/19 11:50:56;;;;;;;;;;;;;;;19.75;42.47;100345.02;105139;1289;62107;-81
2023/04/19 11:53:22;;;;;;;;;;;;;;;19.74;42.62;100339.50;105384;1286;62019;-81
2023/04/19 11:55:50;;;;;;;;;;;;;;;19.76;42.62;100337.99;105811;1283;62066;-81
2023/04/19 11:58:22;;;;;;;;;;;;;;;19.75;42.56;100328.40;105835;1287;62184;-81
2023/04/19 12:00:47;;;;;;;;;;;;;;;19.72;42.45;100329.71;106034;1283;61285;-83
2023/04/19 12:03:13;;;;;;;;;;;;;;;19.68;42.43;100328.36;106122;1283;60744;-81
2023/04/19 12:05:38;;;;;;;;;;;;;;;19.68;42.53;100328.60;106063;1283;60492;-82
2023/04/19 12:08:05;;;;;;;;;;;;;;;19.65;42.65;100322.15;105829;1282;60631;-81
2023/04/19 12:10:31;;;;;;;;;;;;;;;19.66;42.58;100321.20;105614;1289;60424;-81
2023/04/19 12:12:56;;;;;;;;;;;;;;;19.64;42.51;100320.27;105722;1283;60104;-81
2023/04/19 12:15:22;;;;;;;;;;;;;;;19.62;42.55;100314.56;105513;1283;61083;-81
2023/04/19 12:17:55;;;;;;;;;;;;;;;19.64;42.50;100316.38;105641;1287;76320;-81
2023/04/19 12:20:30;;;;;;;;;;;;;;;19.63;42.32;100316.25;105480;1282;62280;-81